KIOW

Iowa City Municipal Airport

Iowa City, Iowa, USA
METAR KIOW 190452Z AUTO 00000KT 10SM FEW085 17/17 A2999 RMK AO2 SLP152 T01720172
Observed Flight Rules
Sep-19 @ 04:52 UTC (50 minutes ago) Visual Flight Rules
Visibility Clouds
10 miles
  • Few at 8,500' AGL
Temperatures Readings
Current 17°C / 63°F
Dewpoint 17°C / 63°F
Humidity 100%
Altimeter 29.99" Hg
Pressure 1015.2 hPa
Elevation 198
METAR KIOW 190452Z AUTO 00000KT 10SM FEW085 17/17 A2999 RMK AO2 SLP152 T01720172
Observed Flight Rules
Sep-19 @ 04:52 UTC
(50 minutes ago)
VFR
Clouds
  • Few at 8,500' AGL
Temperature Dewpoint
17°C / 63°F 17°C / 63°F
Humidity Altimeter Pressure
100% 29.99" Hg 1015.2 hPa